AirNav   Air Wisconsin pilot careers
 
 1472 users online  

9GA1 Briar Patch Airport
Clyo, Georgia, USA

GOING TO CLYO?


FAA INFORMATION EFFECTIVE 16 AUGUST 2018

Location

FAA Identifier: 9GA1
Lat/Long: 32-26-56.0000N / 081-20-13.0000W
32-26.933333N / 081-20.216667W
32.4488889 / -81.3369444
(estimated)
Elevation: 100 ft. / 30 m (estimated)
Variation: 05W (1995)
From city: 4 miles SW of CLYO, GA
Time zone: UTC -4 (UTC -5 during Standard Time)
Zip code: 31303

Airport Operations

Airport use: Private use. Permission required prior to landing
Activation date: 02/1998
Control tower: no
ARTCC: JACKSONVILLE CENTER
FSS: MACON FLIGHT SERVICE STATION
Attendance: UNATNDD
Wind indicator: yes
Segmented circle: no

Airport Communications

WX AWOS-3 at JYL (18 nm NW): 118.875 (912-857-9000)

Nearby radio navigation aids

VOR radial/distance  VOR name  Freq  Var
SAVr345/19.5SAVANNAH VORTAC115.9506W
SVNr341/28.0HUNTER VOR/DME111.6002W
ALDr185/(33.9)ALLENDALE VOR116.7001W

 
NDB name  Hdg/Dist  Freq  Var  ID
SYLVANIA137/17.724504WJYL .--- -.-- .-..
CLAXTON065/31.339504WCWV -.-. .-- ...-
MC INTOSH017/38.126304WMOQ -- --- --.-

Airport Services

Runway Information

Runway 16/34

Dimensions: 2600 x 100 ft. / 792 x 30 m
Surface: turf, in good condition
RUNWAY 16  RUNWAY 34
Traffic pattern: leftleft

Airport Ownership and Management from official FAA records

Ownership: Privately-owned
Owner: TIM O'NEILL
547 GREEN MORGAN SCHOOL ROAD
CLYO, GA 31303
Phone (912) 754-7547
Manager: TIM O'NEILL
547 GREEN MORGAN SCHOOL ROAD
CLYO, GA 31303
Phone (912) 754-7547

Airport Operational Statistics

Aircraft based on the field: 7
Single engine airplanes: 3
Ultralights: 4
    

Instrument Procedures

There are no published instrument procedures at 9GA1.

Some nearby airports with instrument procedures:

KJYL - Plantation Airpark (18 nm NW)
KTBR - Statesboro-Bulloch County Airport (20 nm W)
KSAV - Savannah/Hilton Head International Airport (20 nm S)
KSVN - Hunter Army Airfield (28 nm S)
KCWV - Claxton-Evans County Airport (31 nm SW)
 
Loc | Ops | Rwys | IFR | FBO | Links
Com | Nav | Svcs | Stats | Notes


 
Area around 9GA1 (Briar Patch Airport)
 
Road maps at: MapQuest Bing Google
 
Aerial photo
WARNING: Photo may not be current or correct
Aerial photo of 9GA1 (Briar Patch Airport)
Photo taken 20-Aug-2005

Do you have a better or more recent aerial photo of Briar Patch Airport that you would like to share? If so, please send us your photo.

 
Sectional chart

 
Airport distance calculator
Flying to Briar Patch Airport? Find the distance to fly.

From to 9GA1

Sunrise and sunset
Times for 17-Aug-2018
 Local
(UTC-4)
 Zulu
(UTC)
Morning civil twilight06:2610:26
Sunrise06:5110:51
Sunset20:0700:07
Evening civil twilight20:3300:33

Current date and time
Zulu (UTC)  17-Aug-2018 14:53:25
Local (UTC-4)  17-Aug-2018 10:53:25
 
METAR
KJYL 
18nm NW 
171435Z AUTO 26003KT 10SM CLR 28/24 A3022 RMK AO2 T02790235
KTBR 
20nm W 
171435Z AUTO 24003KT 10SM CLR 28/23 A3022 RMK AO2 LTG DSNT SE T02750229
KSAV 
21nm S 
171353Z 27006KT 10SM BKN160 BKN250 27/22 A3021 RMK AO2 SLP231 T02720222
KSVN 
28nm S 
171356Z AUTO 29005KT 10SM FEW160 27/23 A3019 RMK AO2 SLP226 T02690229 FZRANO $
KCWV 
31nm SW 
171435Z AUTO 00000KT 10SM CLR 27/24 A3021 RMK AO2 T02720242
KNBC 
31nm E 
171256Z 26005KT 10SM FEW200 28/22 A3021 RMK AO2 SLP230 T02780222
KAQX 
33nm N 
171435Z AUTO VRB03KT 10SM CLR 27/23 A3020 RMK AO2
KHXD 
35nm E 
171350Z 24005KT 10SM SKC 29/22 A3021
TAF
KSAV 
21nm S 
171126Z 1712/1812 VRB03KT P6SM SCT250 FM171500 22007KT P6SM FEW040 FM171900 18009KT P6SM VCTS SCT025CB BKN060 FM172200 17011KT P6SM SCT025 BKN080 FM180200 19005KT P6SM BKN200
NOTAMs
Click for the latest NOTAMs
NOTAMs are issued by the DoD/FAA and will open in a separate window not controlled by AirNav.

 

 
 

Would you like to see your business listed on this page?

 If your business provides an interesting product or service to pilots, flight crews, aircraft, or users of the Briar Patch Airport, you should consider listing it here.  To start the listing process, click on the button below
 
Add a business
 

Other Pages about Briar Patch Airport

Update a link
 
Copyright © AirNav, LLC. All rights reserved. Privacy Policy  Contact